createdAt,value
2017-12-16T00:02:08.244Z,92.73
2017-12-16T00:04:37.018Z,92.74
2017-12-16T00:07:05.380Z,92.73
2017-12-16T00:09:34.128Z,92.71
2017-12-16T00:12:02.825Z,92.72
2017-12-16T00:14:31.496Z,92.71
2017-12-16T00:17:00.155Z,92.73
2017-12-16T00:19:28.879Z,92.70
2017-12-16T00:21:57.547Z,92.61
2017-12-16T00:24:26.285Z,92.59
2017-12-16T00:26:54.980Z,92.62
2017-12-16T00:29:23.650Z,92.66
2017-12-16T00:31:52.358Z,92.64
2017-12-16T00:34:21.080Z,92.63
2017-12-16T00:36:49.859Z,92.66
2017-12-16T00:39:18.513Z,92.72
2017-12-16T00:41:47.425Z,92.67
2017-12-16T00:44:16.633Z,92.68
2017-12-16T00:46:45.334Z,92.71
2017-12-16T00:49:14.079Z,92.68
2017-12-16T00:51:42.803Z,92.73
2017-12-16T00:54:11.516Z,92.71
2017-12-16T00:56:40.181Z,92.72
2017-12-16T00:59:08.897Z,92.72
2017-12-16T01:01:37.544Z,92.72
2017-12-16T01:04:06.275Z,92.70
2017-12-16T01:06:34.971Z,92.70
2017-12-16T01:09:03.712Z,92.60
2017-12-16T01:11:32.444Z,92.70
2017-12-16T01:14:01.104Z,92.67
2017-12-16T01:16:29.808Z,92.69
2017-12-16T01:18:58.491Z,92.67
2017-12-16T01:21:27.159Z,92.64
2017-12-16T01:23:55.874Z,92.63
2017-12-16T01:26:24.553Z,92.69
2017-12-16T01:28:53.291Z,92.71
2017-12-16T01:31:21.971Z,92.82
2017-12-16T01:34:01.779Z,92.84
2017-12-16T01:36:41.538Z,92.83
2017-12-16T01:39:10.259Z,92.86
2017-12-16T01:41:38.624Z,92.83
2017-12-16T01:44:07.331Z,92.92
2017-12-16T01:46:36.009Z,92.88
2017-12-16T01:49:04.715Z,92.90
2017-12-16T01:51:33.433Z,92.93
2017-12-16T01:54:02.118Z,92.92
2017-12-16T01:56:30.857Z,92.90
2017-12-16T01:58:59.208Z,92.90
2017-12-16T02:01:27.941Z,92.86
2017-12-16T02:03:56.294Z,92.79
2017-12-16T02:06:24.707Z,92.78
2017-12-16T02:08:53.371Z,92.79
2017-12-16T02:11:22.090Z,92.78
2017-12-16T02:13:50.754Z,92.75
2017-12-16T02:16:19.136Z,92.80
2017-12-16T02:18:47.556Z,92.87
2017-12-16T02:21:15.930Z,92.86
2017-12-16T02:23:44.364Z,92.84
2017-12-16T02:26:12.727Z,92.79
2017-12-16T02:28:41.156Z,92.84
2017-12-16T02:31:09.890Z,92.84
2017-12-16T02:33:38.312Z,92.89
2017-12-16T02:36:11.213Z,92.84
2017-12-16T02:38:39.652Z,92.76
2017-12-16T02:41:10.600Z,92.86
2017-12-16T02:43:39.000Z,92.90
2017-12-16T02:46:11.148Z,92.87
2017-12-16T02:48:39.514Z,92.90
2017-12-16T02:51:07.937Z,92.87
2017-12-16T02:53:43.792Z,92.87
2017-12-16T02:58:55.317Z,92.89
2017-12-16T03:01:31.972Z,92.90
2017-12-16T03:04:03.258Z,92.93
2017-12-16T03:06:40.374Z,92.88
2017-12-16T03:09:14.268Z,92.94
2017-12-16T03:11:44.400Z,92.92
2017-12-16T03:14:14.222Z,92.98
2017-12-16T03:16:44.451Z,92.96
2017-12-16T03:19:14.564Z,92.91
2017-12-16T03:21:43.780Z,93.06
2017-12-16T03:24:12.905Z,93.07
2017-12-16T03:26:42.358Z,93.09
2017-12-16T03:29:10.732Z,93.10
2017-12-16T03:31:39.155Z,93.19
2017-12-16T03:34:07.843Z,93.26
2017-12-16T03:36:36.263Z,93.18
2017-12-16T03:39:04.458Z,93.18
2017-12-16T03:41:32.890Z,93.15
2017-12-16T03:44:01.290Z,93.08
2017-12-16T03:46:29.651Z,93.02
2017-12-16T03:48:58.056Z,93.02
2017-12-16T03:51:26.223Z,93.00
2017-12-16T03:53:54.636Z,92.97
2017-12-16T03:56:22.999Z,93.01
2017-12-16T03:58:51.396Z,92.99
2017-12-16T04:01:20.150Z,92.99
2017-12-16T04:03:48.511Z,92.98
2017-12-16T04:06:17.190Z,93.03
2017-12-16T04:08:45.919Z,93.02
2017-12-16T04:11:14.286Z,93.01
2017-12-16T04:13:43.027Z,92.98
2017-12-16T04:16:15.686Z,92.99
2017-12-16T04:18:44.171Z,92.99
2017-12-16T04:21:12.854Z,92.96
2017-12-16T04:23:41.271Z,92.99
2017-12-16T04:26:10.119Z,93.05
2017-12-16T04:28:38.883Z,93.02
2017-12-16T04:31:07.247Z,93.03
2017-12-16T04:33:35.619Z,92.97
2017-12-16T04:36:08.678Z,93.06
2017-12-16T04:38:37.384Z,93.08
2017-12-16T04:41:06.110Z,93.03
2017-12-16T04:43:41.467Z,93.06
2017-12-16T04:46:20.598Z,93.07
2017-12-16T04:48:51.745Z,93.06
2017-12-16T04:51:23.352Z,93.03
2017-12-16T04:53:53.490Z,93.03
2017-12-16T04:56:23.905Z,93.04
2017-12-16T04:58:53.564Z,93.01
2017-12-16T05:01:22.252Z,92.94
2017-12-16T05:03:50.764Z,93.02
2017-12-16T05:06:19.217Z,93.09
2017-12-16T05:08:47.705Z,93.03
2017-12-16T05:11:16.464Z,92.99
2017-12-16T05:13:45.635Z,92.97
2017-12-16T05:16:14.544Z,92.94
2017-12-16T05:18:45.972Z,92.95
2017-12-16T05:21:14.347Z,92.95
2017-12-16T05:23:43.751Z,92.95
2017-12-16T05:26:15.120Z,92.88
2017-12-16T05:28:45.242Z,92.90
2017-12-16T05:31:14.102Z,92.91
2017-12-16T05:33:45.075Z,92.94
2017-12-16T05:36:14.272Z,92.94
2017-12-16T05:38:45.274Z,92.91
2017-12-16T05:41:14.505Z,92.91
2017-12-16T05:43:42.904Z,92.89
2017-12-16T05:46:13.749Z,92.91
2017-12-16T05:48:45.160Z,92.93
2017-12-16T05:51:13.549Z,92.95
2017-12-16T05:53:42.796Z,92.93
2017-12-16T05:56:11.180Z,92.93
2017-12-16T05:58:40.065Z,92.95
2017-12-16T06:01:08.768Z,92.88
2017-12-16T06:03:38.739Z,92.89
2017-12-16T06:06:09.703Z,92.93
2017-12-16T06:08:38.690Z,92.93
2017-12-16T06:11:07.434Z,92.91
2017-12-16T06:13:35.804Z,92.92
2017-12-16T06:16:04.872Z,92.91
2017-12-16T06:18:33.310Z,92.92
2017-12-16T06:21:02.594Z,92.91
2017-12-16T06:23:32.453Z,92.89
2017-12-16T06:26:02.350Z,92.88
2017-12-16T06:28:31.702Z,92.91
2017-12-16T06:31:08.119Z,92.84
2017-12-16T06:33:45.614Z,92.91
2017-12-16T06:36:29.443Z,92.89
2017-12-16T06:38:58.894Z,92.90
2017-12-16T06:41:27.311Z,92.89
2017-12-16T06:43:55.720Z,92.89
2017-12-16T06:46:24.087Z,92.93
2017-12-16T06:48:52.492Z,92.95
2017-12-16T06:51:21.636Z,92.97
2017-12-16T06:53:50.398Z,92.95
2017-12-16T06:56:18.792Z,92.95
2017-12-16T06:58:47.463Z,92.95
2017-12-16T07:01:15.871Z,92.94
2017-12-16T07:03:50.442Z,92.97
2017-12-16T07:06:19.195Z,92.96
2017-12-16T07:08:47.898Z,93.00
2017-12-16T07:11:16.317Z,93.01
2017-12-16T07:13:44.678Z,92.96
2017-12-16T07:16:13.043Z,93.06
2017-12-16T07:18:41.435Z,93.04
2017-12-16T07:21:09.807Z,93.03
2017-12-16T07:23:38.444Z,93.02
2017-12-16T07:26:10.042Z,93.05
2017-12-16T07:28:38.455Z,93.01
2017-12-16T07:31:07.139Z,93.04
2017-12-16T07:33:35.495Z,93.03
2017-12-16T07:36:09.698Z,93.04
2017-12-16T07:38:38.340Z,93.05
2017-12-16T07:41:07.047Z,93.04
2017-12-16T07:43:35.405Z,92.98
2017-12-16T07:46:05.484Z,93.02
2017-12-16T07:48:34.143Z,92.98
2017-12-16T07:51:02.888Z,92.96
2017-12-16T07:53:31.556Z,92.97
2017-12-16T07:56:00.260Z,92.96
2017-12-16T07:58:28.980Z,92.98
2017-12-16T08:00:57.660Z,92.96
2017-12-16T08:03:26.080Z,92.93
2017-12-16T08:06:02.117Z,93.00
2017-12-16T08:08:30.781Z,92.97
2017-12-16T08:10:59.533Z,93.02
2017-12-16T08:13:28.219Z,93.01
2017-12-16T08:15:56.879Z,93.02
2017-12-16T08:18:25.586Z,93.00
2017-12-16T08:20:54.315Z,92.91
2017-12-16T08:23:22.982Z,92.95
2017-12-16T08:25:51.627Z,92.94
2017-12-16T08:28:20.353Z,92.95
2017-12-16T08:30:49.000Z,92.94
2017-12-16T08:33:17.670Z,92.92
2017-12-16T08:35:46.371Z,92.96
2017-12-16T08:38:15.039Z,92.91
2017-12-16T08:40:43.773Z,92.92
2017-12-16T08:43:12.453Z,92.95
2017-12-16T08:45:41.122Z,93.00
2017-12-16T08:48:10.983Z,92.91
2017-12-16T08:50:39.691Z,92.98
2017-12-16T08:53:08.402Z,93.01
2017-12-16T08:55:37.062Z,93.04
2017-12-16T08:58:07.775Z,93.04
2017-12-16T09:00:36.158Z,93.14
2017-12-16T09:03:04.815Z,93.11
2017-12-16T09:05:33.466Z,93.14
2017-12-16T09:08:02.139Z,93.13
2017-12-16T09:10:30.807Z,93.15
2017-12-16T09:12:59.493Z,93.15
2017-12-16T09:15:30.067Z,93.21
2017-12-16T09:17:58.767Z,93.30
2017-12-16T09:20:27.410Z,93.36
2017-12-16T09:25:48.301Z,93.53
2017-12-16T09:28:26.121Z,93.52
2017-12-16T09:31:06.832Z,93.65
2017-12-16T09:33:43.401Z,93.66
2017-12-16T09:36:23.596Z,93.71
2017-12-16T09:38:56.636Z,93.69
2017-12-16T09:41:36.686Z,93.66
2017-12-16T09:44:13.715Z,93.68
2017-12-16T09:46:51.688Z,93.64
2017-12-16T09:49:34.095Z,93.60
2017-12-16T09:52:12.447Z,93.61
2017-12-16T09:57:30.436Z,93.41
2017-12-16T10:00:09.341Z,93.38
2017-12-16T10:02:46.034Z,93.39
2017-12-16T10:05:25.778Z,93.36
2017-12-16T10:07:56.766Z,93.33
2017-12-16T10:10:25.921Z,93.36
2017-12-16T10:12:54.739Z,93.41
2017-12-16T10:15:23.484Z,93.39
2017-12-16T10:17:52.639Z,93.34
2017-12-16T10:20:21.433Z,93.35
2017-12-16T10:22:50.106Z,93.35
2017-12-16T10:25:18.808Z,93.40
2017-12-16T10:27:47.484Z,93.40
2017-12-16T10:30:15.898Z,93.46
2017-12-16T10:32:45.416Z,93.44
2017-12-16T10:35:14.393Z,93.50
2017-12-16T10:37:43.154Z,93.46
2017-12-16T10:40:11.827Z,93.55
2017-12-16T10:42:40.545Z,93.53
2017-12-16T10:45:09.228Z,93.55
2017-12-16T10:47:38.147Z,93.56
2017-12-16T10:50:06.798Z,93.65
2017-12-16T10:52:35.487Z,93.64
2017-12-16T10:55:04.221Z,93.69
2017-12-16T10:57:32.883Z,93.63
2017-12-16T11:00:01.631Z,93.62
2017-12-16T11:02:30.341Z,93.64
2017-12-16T11:04:59.216Z,93.67
2017-12-16T11:07:29.116Z,93.67
2017-12-16T11:09:57.824Z,93.63
2017-12-16T11:12:26.540Z,93.67
2017-12-16T11:14:55.632Z,93.73
2017-12-16T11:17:24.328Z,93.75
2017-12-16T11:19:53.063Z,93.62
2017-12-16T11:22:21.747Z,93.60
2017-12-16T11:24:50.568Z,93.68
2017-12-16T11:27:19.286Z,93.67
2017-12-16T11:29:48.010Z,93.59
2017-12-16T11:32:16.716Z,93.60
2017-12-16T11:34:49.308Z,93.62
2017-12-16T11:37:17.994Z,93.57
2017-12-16T11:39:46.652Z,93.70
2017-12-16T11:42:15.400Z,93.65
2017-12-16T11:44:44.063Z,93.65
2017-12-16T11:47:12.805Z,93.62
2017-12-16T11:49:41.497Z,93.60
2017-12-16T11:52:10.200Z,93.56
2017-12-16T11:54:38.884Z,93.58
2017-12-16T11:57:07.574Z,93.56
2017-12-16T11:59:36.335Z,93.54
2017-12-16T12:02:04.724Z,93.58
2017-12-16T12:04:33.546Z,93.51
2017-12-16T12:07:18.822Z,93.51
2017-12-16T12:09:48.402Z,93.56
2017-12-16T12:12:17.658Z,93.60
2017-12-16T12:14:46.415Z,93.52
2017-12-16T12:17:15.083Z,93.46
2017-12-16T12:19:43.791Z,93.50
2017-12-16T12:22:12.479Z,93.54
2017-12-16T12:24:41.181Z,93.46
2017-12-16T12:27:09.851Z,93.51
2017-12-16T12:29:38.581Z,93.46
2017-12-16T12:32:07.299Z,93.48
2017-12-16T12:34:36.054Z,93.41
2017-12-16T12:37:04.746Z,93.46
2017-12-16T12:39:33.444Z,93.39
2017-12-16T12:42:02.185Z,93.33
2017-12-16T12:44:30.823Z,93.37
2017-12-16T12:46:59.576Z,93.37
2017-12-16T12:49:28.235Z,93.39
2017-12-16T12:51:56.957Z,93.39
2017-12-16T12:54:25.656Z,93.31
2017-12-16T12:56:54.364Z,93.34
2017-12-16T12:59:22.994Z,93.31
2017-12-16T13:01:51.719Z,93.25
2017-12-16T13:04:20.442Z,93.26
2017-12-16T13:09:25.154Z,93.29
2017-12-16T13:11:59.441Z,93.29
2017-12-16T13:14:28.170Z,93.31
2017-12-16T13:16:56.864Z,93.29
2017-12-16T13:19:25.730Z,93.27
2017-12-16T13:21:57.078Z,93.25
2017-12-16T13:24:25.811Z,93.19
2017-12-16T13:26:54.501Z,93.13
2017-12-16T13:29:23.242Z,93.09
2017-12-16T13:31:51.885Z,93.16
2017-12-16T13:34:20.551Z,93.14
2017-12-16T13:36:49.444Z,93.20
2017-12-16T13:39:18.195Z,93.16
2017-12-16T13:41:46.916Z,93.24
2017-12-16T13:44:16.878Z,93.28
2017-12-16T13:46:45.586Z,93.21
2017-12-16T13:49:14.324Z,93.13
2017-12-16T13:51:43.112Z,93.08
2017-12-16T13:54:15.314Z,93.18
2017-12-16T13:56:51.753Z,93.16
2017-12-16T13:59:20.459Z,93.12
2017-12-16T14:01:49.302Z,92.73
2017-12-16T14:04:18.105Z,92.71
2017-12-16T14:06:47.136Z,92.18
2017-12-16T14:09:15.832Z,92.27
2017-12-16T14:11:44.526Z,92.38
2017-12-16T14:14:13.262Z,92.44
2017-12-16T14:16:41.971Z,92.34
2017-12-16T14:19:17.561Z,92.43
2017-12-16T14:21:46.446Z,92.46
2017-12-16T14:24:15.136Z,92.52
2017-12-16T14:26:43.820Z,92.40
2017-12-16T14:29:12.513Z,92.44
2017-12-16T14:31:41.237Z,92.55
2017-12-16T14:34:09.911Z,92.57
2017-12-16T14:36:38.685Z,92.55
2017-12-16T14:39:07.343Z,92.56
2017-12-16T14:41:35.724Z,92.58
2017-12-16T14:44:04.525Z,92.57
2017-12-16T14:46:33.231Z,92.62
2017-12-16T14:49:01.939Z,92.64
2017-12-16T14:51:30.591Z,92.61
2017-12-16T14:53:59.344Z,92.64
2017-12-16T14:56:28.159Z,92.64
2017-12-16T14:58:56.813Z,92.65
2017-12-16T15:01:25.864Z,92.70
2017-12-16T15:03:54.515Z,92.70
2017-12-16T15:06:26.336Z,92.67
2017-12-16T15:08:55.058Z,92.68
2017-12-16T15:11:23.774Z,92.73
2017-12-16T15:13:52.479Z,92.71
2017-12-16T15:16:21.164Z,92.68
2017-12-16T15:18:52.878Z,92.72
2017-12-16T15:21:22.769Z,92.72
2017-12-16T15:23:52.793Z,92.75
2017-12-16T15:26:21.581Z,92.74
2017-12-16T15:28:50.318Z,92.77
2017-12-16T15:31:19.041Z,92.75
2017-12-16T15:33:47.716Z,92.73
2017-12-16T15:36:16.393Z,92.78
2017-12-16T15:38:45.091Z,92.77
2017-12-16T15:41:13.783Z,92.78
2017-12-16T15:46:12.977Z,92.79
2017-12-16T15:48:41.640Z,92.84
2017-12-16T15:51:10.253Z,92.83
2017-12-16T15:53:38.914Z,92.78
2017-12-16T15:56:09.551Z,92.88
2017-12-16T15:58:38.210Z,92.88
2017-12-16T16:01:06.647Z,92.90
2017-12-16T16:03:35.354Z,92.87
2017-12-16T16:06:04.639Z,92.82
2017-12-16T16:08:33.408Z,92.83
2017-12-16T16:11:01.785Z,92.84
2017-12-16T16:13:30.481Z,92.88
2017-12-16T16:15:59.681Z,92.89
2017-12-16T16:18:28.358Z,92.88
2017-12-16T16:20:57.081Z,92.90
2017-12-16T16:23:25.720Z,92.91
2017-12-16T16:25:54.414Z,92.93
2017-12-16T16:28:23.054Z,92.95
2017-12-16T16:30:51.744Z,92.92
2017-12-16T16:33:26.387Z,92.92
2017-12-16T16:35:55.089Z,92.98
2017-12-16T16:38:23.695Z,92.96
2017-12-16T16:40:53.277Z,92.98
2017-12-16T16:43:21.905Z,92.98
2017-12-16T16:45:51.114Z,92.98
2017-12-16T16:48:19.773Z,93.00
2017-12-16T16:50:48.477Z,92.99
2017-12-16T16:53:17.123Z,92.98
2017-12-16T16:55:45.789Z,93.01
2017-12-16T16:58:15.265Z,93.00
2017-12-16T17:00:43.684Z,93.01
2017-12-16T17:03:12.371Z,93.03
2017-12-16T17:05:40.987Z,93.02
2017-12-16T17:08:09.653Z,93.06
2017-12-16T17:10:38.256Z,93.05
2017-12-16T17:13:06.970Z,93.05
2017-12-16T17:15:35.658Z,93.07
2017-12-16T17:18:04.326Z,93.10
2017-12-16T17:20:33.034Z,93.07
2017-12-16T17:23:01.677Z,93.04
2017-12-16T17:25:30.405Z,93.05
2017-12-16T17:27:59.311Z,93.07
2017-12-16T17:30:28.021Z,93.06
2017-12-16T17:32:56.688Z,93.07
2017-12-16T17:35:25.349Z,93.08
2017-12-16T17:37:53.707Z,93.09
2017-12-16T17:40:22.430Z,93.09
2017-12-16T17:42:51.077Z,93.08
2017-12-16T17:45:28.228Z,93.10
2017-12-16T17:47:56.902Z,93.11
2017-12-16T17:50:25.508Z,93.09
2017-12-16T17:52:54.207Z,93.14
2017-12-16T17:55:41.040Z,93.13
2017-12-16T18:00:50.462Z,93.13
2017-12-16T18:03:25.863Z,93.17
2017-12-16T18:05:54.674Z,93.17
2017-12-16T18:08:24.319Z,93.16
2017-12-16T18:10:53.217Z,93.19
2017-12-16T18:13:22.054Z,93.19
2017-12-16T18:15:50.738Z,93.16
2017-12-16T19:39:15.029Z,93.93
2017-12-16T19:41:43.690Z,93.96
2017-12-16T19:44:12.378Z,93.95
2017-12-16T19:46:41.037Z,93.95
2017-12-16T19:49:09.691Z,93.95
2017-12-16T19:51:38.397Z,93.91
2017-12-16T19:54:07.085Z,93.89
2017-12-16T19:56:35.796Z,93.83
2017-12-16T19:59:04.441Z,93.80
2017-12-16T20:01:33.130Z,93.73
2017-12-16T20:04:01.734Z,93.72
2017-12-16T20:06:30.402Z,93.66
2017-12-16T20:08:59.063Z,93.67
2017-12-16T20:11:27.739Z,93.64
2017-12-16T20:13:56.761Z,93.62
2017-12-16T20:16:25.469Z,93.60
2017-12-16T20:18:54.354Z,93.60
2017-12-16T20:21:27.134Z,93.56
2017-12-16T20:23:56.082Z,93.53
2017-12-16T20:26:25.501Z,93.52
2017-12-16T20:28:54.131Z,93.53
2017-12-16T20:31:22.890Z,93.51
2017-12-16T20:33:51.513Z,93.51
2017-12-16T20:36:21.694Z,93.46
2017-12-16T20:38:50.386Z,93.41
2017-12-16T20:41:19.165Z,93.42
2017-12-16T20:43:47.879Z,93.37
2017-12-16T20:46:16.525Z,93.37
2017-12-16T20:48:45.217Z,93.39
2017-12-16T20:51:13.865Z,93.39
2017-12-16T20:53:42.505Z,93.38
2017-12-16T20:56:11.269Z,93.37
2017-12-16T20:58:39.886Z,93.38
2017-12-16T21:01:08.583Z,93.39
2017-12-16T21:03:37.267Z,93.36
2017-12-16T21:06:09.124Z,93.30
2017-12-16T21:08:37.733Z,93.35
2017-12-16T21:11:06.362Z,93.35
2017-12-16T21:13:35.038Z,93.37
2017-12-16T21:16:03.705Z,93.40
2017-12-16T21:18:32.350Z,93.39
2017-12-16T21:21:00.985Z,93.40
2017-12-16T21:23:29.696Z,93.48
2017-12-16T21:25:58.312Z,93.46
2017-12-16T21:28:26.922Z,93.48
2017-12-16T21:30:55.605Z,93.49
2017-12-16T21:33:29.700Z,93.48
2017-12-16T21:35:58.388Z,93.48
2017-12-16T21:38:27.016Z,93.47
2017-12-16T21:40:55.796Z,93.48
2017-12-16T21:43:24.450Z,93.49
2017-12-16T21:45:53.564Z,93.53
2017-12-16T21:48:23.006Z,93.53
2017-12-16T21:50:53.301Z,93.49
2017-12-16T21:53:22.487Z,93.48
2017-12-16T21:55:51.142Z,93.48
2017-12-16T21:58:35.200Z,93.48
2017-12-16T22:01:20.046Z,93.48
2017-12-16T22:04:06.110Z,93.49
2017-12-16T22:06:53.327Z,93.48
2017-12-16T22:09:37.229Z,93.45
2017-12-16T22:12:21.690Z,93.44
2017-12-16T22:15:06.366Z,93.41
2017-12-16T22:17:49.776Z,93.43
2017-12-16T22:20:34.700Z,93.40
2017-12-16T22:23:05.727Z,93.44
2017-12-16T22:25:35.390Z,93.41
2017-12-16T22:28:04.123Z,93.45
2017-12-16T22:30:32.740Z,93.45
2017-12-16T22:33:01.412Z,93.44
2017-12-16T22:35:30.031Z,93.43
2017-12-16T22:37:58.699Z,93.46
2017-12-16T22:40:27.324Z,93.47
2017-12-16T22:42:55.958Z,93.48
2017-12-16T22:45:24.622Z,93.49
2017-12-16T22:47:53.236Z,93.49
2017-12-16T22:50:21.898Z,93.49
2017-12-16T22:52:50.506Z,93.48
2017-12-16T22:55:19.198Z,93.47
2017-12-16T22:57:47.918Z,93.52
2017-12-16T23:00:16.542Z,93.53
2017-12-16T23:02:45.224Z,93.56
2017-12-16T23:05:13.849Z,93.62
2017-12-16T23:07:42.197Z,93.58
2017-12-16T23:10:10.537Z,93.57
2017-12-16T23:12:39.221Z,93.62
2017-12-16T23:15:07.862Z,93.56
2017-12-16T23:17:36.283Z,93.59
2017-12-16T23:20:04.968Z,93.54
2017-12-16T23:22:33.294Z,93.50
2017-12-16T23:25:02.013Z,93.48
2017-12-16T23:27:30.671Z,93.39
2017-12-16T23:29:59.026Z,93.42
2017-12-16T23:32:27.379Z,93.40
2017-12-16T23:34:55.763Z,93.41
2017-12-16T23:37:24.126Z,93.37
2017-12-16T23:39:52.855Z,93.38
2017-12-16T23:42:21.550Z,93.33
2017-12-16T23:44:49.874Z,93.37
2017-12-16T23:47:18.214Z,93.35
2017-12-16T23:49:46.794Z,93.35
2017-12-16T23:52:15.452Z,93.30
2017-12-16T23:54:43.811Z,93.37
2017-12-16T23:57:12.129Z,93.33
2017-12-16T23:59:40.522Z,93.36
